Boise, ID (83705)

5:31 PM MST on November 23, 2014 (GMT -0700)
Mesa Vista | Change Station
CLOSE
Current Station
Personal Weather Station
Location: Boise, ID
Elevation: 2766 ft
Nearby Weather Stations

Elev 2766 ft 43.60 °N, 116.21 °W | Updated 0 second ago

Partly Cloudy
Partly Cloudy
38.1 °F
Feels Like 38 °F
N
0.0
Wind Variable Wind from WNW
Gusts 0.0 mph

Today
High -- | Low -- °F
--% Chance of Precip.
Yesterday
High -- | Low -- °F
Precip. -- in
7:48 AM 5:13 PM
Waxing Crescent, 3% visible
Pressure 30.28 in
Visibility 10.0 miles
Clouds Few 12000 ft
Windchill 38 °F
Dew Point 30 °F
Humidity 73%
Rainfall 0.02 in
Snow Depth Not available.
UV 0 out of 12
Pollen .10 out of 12
Air Quality Not available.
Flu Activity Not available.
METAR KBOI 232353Z 00000KT 10SM FEW120 06/M02 A3024 RMK AO2 SLP253 T00611017 10078 20044 56011

More Conditions Fewer Conditions

Pressure 30.28 in
Visibility 10.0 miles
Clouds Few 12000 ft
Windchill 38 °F
Dew Point 30 °F
Humidity 73%
Rainfall 0.02 in
Snow Depth Not available.
UV 0 out of 12
Pollen .10 out of 12
Air Quality Not available.
Flu Activity Not available.
METAR KBOI 232353Z 00000KT 10SM FEW120 06/M02 A3024 RMK AO2 SLP253 T00611017 10078 20044 56011

More Conditions Fewer Conditions

10-Day Weather Forecast

Almanac

Astronomy

Nov. 23, 2014 Rise Set
Actual Time
Civil Twilight
Nautical Twilight
Astronomical Twilight
Moon
Length of Visible Light
Length of Day
Tomorrow will be .
, % of the Moon is Illuminated

Today's Extremes

State Highs State Lows

Community

WunderPhotos

Upload Photos

1,773,226 photos uploaded!

WunderBlogs® & News

Nearby

Air Quality

  Air Quality AQ Index Pollutant
Not available.

Snow Depth

Station Depth Elevation

Earthquake Activity

City Distance Mag. Time & Date
Minimum magnitude displayed is 2.5.

Coastal Water Temperatures

Place Temperature

Nearby Weather Stations